Time;durP1;ratioP1;P1;durP2;ratioP2;P2;SDS_P1;SDS_P2;PMS_P1;PMS_P2;Temp;Humidity;BMP_temperature;BMP_pressure;BME280_temperature;BME280_humidity;BME280_pressure;Samples;Min_cycle;Max_cycle;Signal;HPM_P1;HPM_P2
2022/10/18 00:01:30;;;;;;;10.70;4.25;;;;;;;10.02;100.00;101078.56;1739927;80;21018;-47
2022/10/18 00:03:56;;;;;;;5.10;3.80;;;;;;;10.01;100.00;101083.52;1740156;80;21391;-48
2022/10/18 00:06:23;;;;;;;8.75;4.70;;;;;;;9.99;100.00;101077.75;1740431;80;21549;-48
2022/10/18 00:08:51;;;;;;;9.43;4.62;;;;;;;9.98;100.00;101084.93;1739434;80;21049;-48
2022/10/18 00:11:17;;;;;;;10.70;4.10;;;;;;;9.96;100.00;101073.32;1745241;80;21955;-48
2022/10/18 00:13:43;;;;;;;8.18;3.90;;;;;;;9.95;100.00;101077.42;1740828;80;21026;-48
2022/10/18 00:16:14;;;;;;;14.75;4.60;;;;;;;9.93;100.00;101071.19;1735977;80;21053;-47
2022/10/18 00:18:41;;;;;;;12.00;4.65;;;;;;;9.92;100.00;101060.00;1742182;80;21086;-48
2022/10/18 00:21:16;;;;;;;10.08;4.30;;;;;;;9.91;100.00;101066.30;1739806;80;21054;-47
2022/10/18 00:23:46;;;;;;;7.58;4.00;;;;;;;9.91;100.00;101068.98;1738487;80;22320;-48
2022/10/18 00:26:24;;;;;;;8.15;4.53;;;;;;;9.89;100.00;101066.33;1738931;80;21564;-48
2022/10/18 00:28:55;;;;;;;14.00;3.80;;;;;;;9.89;100.00;101067.67;1735869;80;21066;-49
2022/10/18 00:31:26;;;;;;;6.47;3.02;;;;;;;9.87;100.00;101062.33;1739646;80;21037;-48
2022/10/18 00:33:56;;;;;;;11.40;3.70;;;;;;;9.87;100.00;101065.47;1741383;80;21022;-47
2022/10/18 00:36:24;;;;;;;6.75;3.33;;;;;;;9.84;100.00;101061.08;1737805;80;21912;-48
2022/10/18 00:38:50;;;;;;;7.37;3.62;;;;;;;9.83;100.00;101050.35;1738475;80;21043;-47
2022/10/18 00:41:20;;;;;;;8.50;3.83;;;;;;;9.80;100.00;101051.30;1741488;80;21116;-46
2022/10/18 00:44:03;;;;;;;7.85;4.97;;;;;;;9.79;100.00;101054.02;1742928;80;21061;-47
2022/10/18 00:46:33;;;;;;;6.60;3.98;;;;;;;9.75;100.00;101051.00;1739072;80;21630;-48
2022/10/18 00:49:14;;;;;;;11.55;4.08;;;;;;;9.72;100.00;101054.64;1738557;80;21783;-48
2022/10/18 00:51:50;;;;;;;6.55;3.42;;;;;;;9.69;100.00;101057.88;1739251;80;21029;-48
2022/10/18 00:54:18;;;;;;;11.25;3.85;;;;;;;9.67;100.00;101053.87;1738463;80;21042;-47
2022/10/18 00:56:45;;;;;;;8.88;3.92;;;;;;;9.62;100.00;101047.70;1741080;80;21773;-48
2022/10/18 00:59:14;;;;;;;10.00;4.20;;;;;;;9.56;100.00;101050.55;1736189;80;21112;-47
2022/10/18 01:01:40;;;;;;;7.90;4.20;;;;;;;9.52;100.00;101044.84;1735023;80;21886;-47
2022/10/18 01:04:07;;;;;;;14.68;4.72;;;;;;;9.47;100.00;101048.08;1730827;80;21439;-47
2022/10/18 01:06:57;;;;;;;7.58;3.37;;;;;;;9.43;100.00;101042.36;1731280;80;22085;-48
2022/10/18 01:09:44;;;;;;;5.47;4.22;;;;;;;9.40;100.00;101042.42;1735221;80;22674;-48
2022/10/18 01:12:31;;;;;;;8.60;4.00;;;;;;;9.35;100.00;101036.28;1734579;80;21113;-47
2022/10/18 01:15:18;;;;;;;6.20;2.95;;;;;;;9.31;100.00;101039.94;1699414;80;21786;-48
2022/10/18 01:18:07;;;;;;;8.35;3.42;;;;;;;9.27;100.00;101041.80;1731079;80;21815;-47
2022/10/18 01:20:59;;;;;;;7.87;3.90;;;;;;;9.24;100.00;101044.58;1734036;80;21878;-48
2022/10/18 01:24:04;;;;;;;9.60;3.83;;;;;;;9.20;100.00;101036.61;1735041;80;21492;-47
2022/10/18 01:27:11;;;;;;;10.08;4.70;;;;;;;9.17;100.00;101031.32;1734857;80;28041;-47
2022/10/18 01:29:56;;;;;;;15.32;4.78;;;;;;;9.12;100.00;101032.75;1733394;80;21740;-47
2022/10/18 01:32:33;;;;;;;8.18;5.05;;;;;;;9.07;100.00;101023.46;1734909;81;21069;-47
2022/10/18 01:35:04;;;;;;;8.13;4.08;;;;;;;9.05;100.00;101023.06;1738962;80;21299;-46
2022/10/18 01:37:30;;;;;;;8.60;4.50;;;;;;;9.02;100.00;101024.00;1735571;80;21077;-48
2022/10/18 01:39:57;;;;;;;8.28;3.50;;;;;;;8.99;100.00;101024.09;1736326;80;21104;-48
2022/10/18 01:42:24;;;;;;;11.73;4.25;;;;;;;8.97;100.00;101023.69;1737024;80;23655;-48
2022/10/18 01:44:51;;;;;;;11.00;4.25;;;;;;;8.92;100.00;101024.26;1735462;80;21059;-47
2022/10/18 01:47:18;;;;;;;7.17;3.85;;;;;;;8.89;100.00;101017.14;1737966;80;21033;-47
2022/10/18 01:49:44;;;;;;;6.25;3.62;;;;;;;8.85;100.00;101014.08;1679399;83;21263;-47
2022/10/18 01:52:15;;;;;;;7.65;4.15;;;;;;;8.84;100.00;101010.11;1738757;80;21493;-47
2022/10/18 01:54:47;;;;;;;9.75;3.70;;;;;;;8.82;100.00;101005.23;1734616;80;22258;-48
2022/10/18 01:57:41;;;;;;;12.28;5.00;;;;;;;8.81;100.00;101002.11;1734868;80;21069;-47
2022/10/18 02:00:23;;;;;;;18.00;3.87;;;;;;;8.80;100.00;101000.34;1738554;80;21073;-47
2022/10/18 02:02:55;;;;;;;12.30;3.77;;;;;;;8.77;100.00;100995.91;1739218;79;21054;-47
2022/10/18 02:05:43;;;;;;;9.40;3.62;;;;;;;8.77;100.00;100988.31;1737381;80;21429;-48
2022/10/18 02:08:20;;;;;;;6.58;3.50;;;;;;;8.77;100.00;100997.70;1738585;80;21473;-48
2022/10/18 02:10:51;;;;;;;10.20;3.95;;;;;;;8.76;100.00;100990.60;1731269;80;21049;-48
2022/10/18 02:15:38;;;;;;;5.77;3.50;;;;;;;8.73;100.00;100974.97;1795944;78;24121;-46
2022/10/18 02:18:10;;;;;;;6.35;3.45;;;;;;;8.73;100.00;100979.00;1714718;81;21054;-47
2022/10/18 02:20:38;;;;;;;6.58;3.47;;;;;;;8.75;100.00;100982.11;1718789;81;21041;-47
2022/10/18 02:23:06;;;;;;;9.25;4.08;;;;;;;8.74;100.00;100974.52;1745293;80;20970;-45
2022/10/18 02:25:33;;;;;;;7.03;4.55;;;;;;;8.76;100.00;100970.01;1744243;80;21006;-47
2022/10/18 02:28:02;;;;;;;5.78;3.65;;;;;;;8.78;100.00;100971.29;1744348;80;21836;-46
2022/10/18 02:30:33;;;;;;;9.07;3.80;;;;;;;8.80;100.00;100962.75;1739038;80;21011;-46
2022/10/18 02:33:09;;;;;;;14.95;4.92;;;;;;;8.80;100.00;100956.92;1737946;80;21892;-46
2022/10/18 02:35:40;;;;;;;5.37;3.43;;;;;;;8.82;100.00;100955.55;1746191;80;20971;-47
2022/10/18 02:38:06;;;;;;;9.63;4.60;;;;;;;8.83;100.00;100959.56;1713208;82;21022;-46
2022/10/18 02:40:32;;;;;;;7.15;3.27;;;;;;;8.83;100.00;100956.88;1720505;81;20999;-47
2022/10/18 02:42:58;;;;;;;9.15;4.12;;;;;;;8.85;100.00;100952.33;1723439;82;21724;-46
2022/10/18 02:45:25;;;;;;;6.30;3.75;;;;;;;8.87;100.00;100952.30;1724033;82;21918;-46
2022/10/18 02:47:52;;;;;;;10.48;4.53;;;;;;;8.88;100.00;100955.41;1720525;82;21493;-47
2022/10/18 02:50:18;;;;;;;12.10;4.10;;;;;;;8.88;100.00;100948.24;1723077;82;21487;-47
2022/10/18 02:52:45;;;;;;;12.78;3.10;;;;;;;8.89;100.00;100944.64;1738781;81;21064;-46
2022/10/18 02:55:11;;;;;;;20.05;4.80;;;;;;;8.89;100.00;100946.44;1715221;81;21113;-46
2022/10/18 02:57:37;;;;;;;7.67;3.72;;;;;;;8.89;100.00;100950.02;1715480;82;21842;-47
2022/10/18 03:00:05;;;;;;;7.78;3.52;;;;;;;8.89;100.00;100948.67;1718242;83;21395;-46
2022/10/18 03:02:32;;;;;;;9.73;3.55;;;;;;;8.90;100.00;100941.05;1718495;82;21086;-46
2022/10/18 03:04:59;;;;;;;13.28;4.30;;;;;;;8.92;100.00;100946.39;1714488;82;21081;-47
2022/10/18 03:07:25;;;;;;;12.03;4.03;;;;;;;8.91;100.00;100938.78;1718136;82;21045;-47
2022/10/18 03:09:51;;;;;;;4.83;3.15;;;;;;;8.91;100.00;100940.59;1718245;82;21834;-47
2022/10/18 03:12:18;;;;;;;7.58;4.03;;;;;;;8.92;100.00;100936.53;1714421;82;21090;-46
2022/10/18 03:14:45;;;;;;;11.97;3.45;;;;;;;8.91;100.00;100929.39;1696499;81;21097;-47
2022/10/18 03:17:11;;;;;;;10.20;4.10;;;;;;;8.92;100.00;100926.25;1677815;83;21074;-47
2022/10/18 03:19:38;;;;;;;13.08;5.10;;;;;;;8.91;100.00;100925.36;1679962;83;21646;-47
2022/10/18 03:22:04;;;;;;;11.30;5.05;;;;;;;8.91;100.00;100925.36;1677326;83;21977;-48
2022/10/18 03:24:31;;;;;;;11.43;5.37;;;;;;;8.91;100.00;100917.77;1680629;83;21161;-48
2022/10/18 03:26:59;;;;;;;7.72;4.67;;;;;;;8.90;100.00;100915.99;1679668;83;21511;-48
2022/10/18 03:29:25;;;;;;;8.35;4.67;;;;;;;8.88;100.00;100910.66;1701924;82;21047;-48
2022/10/18 03:31:52;;;;;;;10.20;4.55;;;;;;;8.88;100.00;100910.66;1740571;80;21076;-47
2022/10/18 03:34:19;;;;;;;8.80;4.45;;;;;;;8.87;100.00;100906.66;1739741;80;22314;-48
2022/10/18 03:36:45;;;;;;;8.73;4.50;;;;;;;8.87;100.00;100907.54;1736529;80;21064;-47
2022/10/18 03:39:12;;;;;;;10.48;4.05;;;;;;;8.86;100.00;100904.42;1743927;80;21285;-47
2022/10/18 03:41:40;;;;;;;7.53;4.03;;;;;;;8.85;100.00;100900.42;1738208;80;21362;-47
2022/10/18 03:44:06;;;;;;;5.42;3.98;;;;;;;8.84;100.00;100899.58;1737316;80;21097;-47
2022/10/18 03:46:32;;;;;;;12.90;4.12;;;;;;;8.84;100.00;100898.23;1742788;80;21842;-48
2022/10/18 03:48:59;;;;;;;8.38;3.80;;;;;;;8.84;100.00;100897.34;1740378;80;21049;-47
2022/10/18 03:51:25;;;;;;;10.48;4.37;;;;;;;8.83;100.00;100902.29;1741118;80;21120;-48
2022/10/18 03:53:53;;;;;;;7.58;3.80;;;;;;;8.83;100.00;100903.17;1741517;80;21086;-47
2022/10/18 03:56:20;;;;;;;10.30;4.33;;;;;;;8.83;100.00;100903.63;1740693;80;21348;-47
2022/10/18 03:58:46;;;;;;;10.53;4.42;;;;;;;8.83;100.00;100901.83;1742926;80;21905;-47
2022/10/18 04:01:13;;;;;;;11.70;4.47;;;;;;;8.84;100.00;100901.37;1741500;80;21034;-48
2022/10/18 04:03:39;;;;;;;9.20;3.83;;;;;;;8.83;100.00;100900.48;1742253;80;21097;-49
2022/10/18 04:06:08;;;;;;;7.15;3.25;;;;;;;8.83;100.00;100904.52;1742398;80;21705;-48
2022/10/18 04:08:35;;;;;;;11.03;3.80;;;;;;;8.83;100.00;100892.89;1738477;80;21338;-49
2022/10/18 04:11:07;;;;;;;11.73;4.83;;;;;;;8.83;100.00;100893.78;1743045;80;21915;-49
2022/10/18 04:13:35;;;;;;;8.68;4.75;;;;;;;8.84;100.00;100891.98;1742456;80;21785;-48
2022/10/18 04:16:01;;;;;;;7.95;3.83;;;;;;;8.84;100.00;100888.84;1760602;80;21033;-48
2022/10/18 04:18:29;;;;;;;7.92;3.98;;;;;;;8.84;100.00;100887.49;1759220;79;21075;-48
2022/10/18 04:20:55;;;;;;;7.72;4.70;;;;;;;8.84;100.00;100880.78;1760082;79;21053;-47
2022/10/18 04:23:21;;;;;;;6.45;3.98;;;;;;;8.83;100.00;100880.36;1762078;79;21932;-48
2022/10/18 04:25:48;;;;;;;11.12;3.50;;;;;;;8.84;100.00;100875.87;1761334;80;21081;-48
2022/10/18 04:28:14;;;;;;;11.22;3.27;;;;;;;8.84;100.00;100873.19;1724550;81;21321;-48
2022/10/18 04:30:41;;;;;;;9.38;4.78;;;;;;;8.84;100.00;100871.84;1759996;79;21507;-48
2022/10/18 04:33:08;;;;;;;6.67;3.58;;;;;;;8.84;100.00;100873.19;1760782;80;21046;-48
2022/10/18 04:35:34;;;;;;;7.80;3.22;;;;;;;8.84;100.00;100866.47;1731717;81;21852;-48
2022/10/18 04:38:01;;;;;;;7.30;3.75;;;;;;;8.85;100.00;100870.89;1736440;79;21035;-48
2022/10/18 04:40:27;;;;;;;5.40;2.72;;;;;;;8.85;100.00;100869.55;1722287;81;21170;-48
2022/10/18 04:42:53;;;;;;;7.20;3.12;;;;;;;8.86;100.00;100864.16;1726887;81;21104;-48
2022/10/18 04:45:20;;;;;;;9.78;3.50;;;;;;;8.86;100.00;100862.81;1760733;79;21464;-48
2022/10/18 04:47:46;;;;;;;5.55;3.35;;;;;;;8.85;100.00;100856.12;1758553;79;21955;-47
2022/10/18 04:50:13;;;;;;;7.95;3.12;;;;;;;8.85;100.00;100852.98;1760037;79;21406;-49
2022/10/18 04:52:39;;;;;;;7.72;3.22;;;;;;;8.85;100.00;100855.67;1757333;80;21026;-48
2022/10/18 04:55:06;;;;;;;7.20;3.25;;;;;;;8.84;100.00;100849.91;1763483;79;21069;-48
2022/10/18 04:57:33;;;;;;;7.50;3.50;;;;;;;8.85;100.00;100848.07;1763621;79;21050;-47
2022/10/18 05:00:00;;;;;;;6.37;3.65;;;;;;;8.86;100.00;100850.73;1758108;79;21936;-48
2022/10/18 05:02:27;;;;;;;7.20;3.15;;;;;;;8.87;100.00;100849.81;1762823;79;21033;-47
2022/10/18 05:04:53;;;;;;;8.60;3.70;;;;;;;8.88;100.00;100848.89;1756313;79;21026;-49
2022/10/18 05:07:20;;;;;;;8.78;2.87;;;;;;;8.89;100.00;100847.09;1765143;79;21132;-48
2022/10/18 05:09:46;;;;;;;4.72;2.70;;;;;;;8.92;100.00;100841.66;1754463;80;21425;-48
2022/10/18 05:12:13;;;;;;;7.87;3.08;;;;;;;8.95;100.00;100841.56;1757171;79;21834;-48
2022/10/18 05:14:39;;;;;;;9.65;2.95;;;;;;;9.02;100.00;100836.00;1763554;80;21281;-48
2022/10/18 05:17:08;;;;;;;9.15;2.33;;;;;;;9.11;100.00;100834.89;1757945;80;21362;-48
2022/10/18 05:19:35;;;;;;;6.55;2.90;;;;;;;9.19;100.00;100832.89;1753763;79;21053;-48
2022/10/18 05:22:01;;;;;;;7.20;2.77;;;;;;;9.29;100.00;100836.23;1761845;79;21082;-48
2022/10/18 05:24:28;;;;;;;6.78;2.80;;;;;;;9.41;100.00;100843.98;1722089;81;21826;-48
2022/10/18 05:26:54;;;;;;;5.42;2.22;;;;;;;9.53;100.00;100846.33;1708792;82;21078;-47
2022/10/18 05:29:21;;;;;;;10.23;3.47;;;;;;;9.66;100.00;100837.49;1689108;83;21506;-47
2022/10/18 05:31:48;;;;;;;4.35;2.70;;;;;;;9.77;100.00;100836.28;1710853;81;21084;-46
2022/10/18 05:34:16;;;;;;;4.62;2.58;;;;;;;9.90;100.00;100834.12;1711324;81;21445;-46
2022/10/18 05:36:42;;;;;;;5.42;2.52;;;;;;;10.00;100.00;100830.25;1757047;79;21753;-46
2022/10/18 05:39:09;;;;;;;4.25;2.58;;;;;;;10.10;100.00;100829.52;1757161;80;20990;-46
2022/10/18 05:41:35;;;;;;;5.30;2.02;;;;;;;10.19;100.00;100828.83;1757820;79;20967;-47
2022/10/18 05:44:03;;;;;;;5.80;1.92;;;;;;;10.28;100.00;100830.36;1757857;79;20982;-47
2022/10/18 05:46:30;;;;;;;8.35;2.02;;;;;;;10.36;100.00;100830.13;1762354;80;21410;-47
2022/10/18 05:48:56;;;;;;;3.62;1.98;;;;;;;10.43;100.00;100833.05;1756569;80;21864;-48
2022/10/18 05:51:23;;;;;;;8.05;2.50;;;;;;;10.50;100.00;100826.54;1761136;79;21788;-48
2022/10/18 05:53:50;;;;;;;4.30;2.00;;;;;;;10.55;100.00;100829.49;1759145;80;21084;-47
2022/10/18 05:56:16;;;;;;;6.00;2.75;;;;;;;10.59;100.00;100828.95;1720697;81;21049;-46
2022/10/18 05:58:47;;;;;;;4.45;2.50;;;;;;;10.61;100.00;100830.67;1711318;81;21533;-46
2022/10/18 06:01:14;;;;;;;6.28;2.50;;;;;;;10.67;100.00;100832.74;1712435;81;21725;-47
2022/10/18 06:03:41;;;;;;;6.35;1.95;;;;;;;10.71;100.00;100836.66;1690492;83;21147;-47
2022/10/18 06:06:09;;;;;;;5.55;2.55;;;;;;;10.76;100.00;100840.53;1757679;79;21065;-47
2022/10/18 06:08:37;;;;;;;9.50;2.65;;;;;;;10.81;100.00;100841.25;1752611;79;21093;-48
2022/10/18 06:11:12;;;;;;;7.12;2.22;;;;;;;10.86;100.00;100839.31;1755161;79;21038;-48
2022/10/18 06:13:42;;;;;;;;;;;;;;;10.92;100.00;100844.49;1733606;80;21874;-47
2022/10/18 06:16:09;;;;;;;8.63;2.20;;;;;;;10.98;100.00;100846.52;1772040;80;21467;-47
2022/10/18 06:18:36;;;;;;;4.60;1.87;;;;;;;11.04;100.00;100845.45;1773617;78;21450;-48
2022/10/18 06:21:04;;;;;;;9.75;2.33;;;;;;;11.10;100.00;100838.51;1767863;78;21108;-46
2022/10/18 06:23:30;;;;;;;8.28;2.50;;;;;;;11.17;100.00;100845.45;1775822;79;21029;-50
2022/10/18 06:26:01;;;;;;;6.35;2.90;;;;;;;11.24;100.00;100845.66;1775622;78;21845;-51
2022/10/18 06:28:28;;;;;;;6.20;2.62;;;;;;;11.31;100.00;100849.05;1777367;78;21408;-49
2022/10/18 06:30:56;;;;;;;6.50;2.65;;;;;;;11.37;100.00;100851.06;1770379;80;21728;-50
2022/10/18 06:33:22;;;;;;;6.33;1.92;;;;;;;11.44;100.00;100850.84;1773572;79;21571;-49
2022/10/18 06:36:00;;;;;;;3.98;2.20;;;;;;;11.50;100.00;100847.92;1775213;80;21076;-50
2022/10/18 06:38:27;;;;;;;4.10;2.42;;;;;;;11.57;100.00;100844.11;1773803;78;21751;-50
2022/10/18 06:40:54;;;;;;;7.87;2.47;;;;;;;11.64;100.00;100844.30;1771586;78;21496;-50
2022/10/18 06:43:21;;;;;;;6.92;1.52;;;;;;;11.72;100.00;100838.17;1774985;79;21511;-50
2022/10/18 06:45:48;;;;;;;2.42;1.70;;;;;;;11.79;100.00;100834.34;1773481;78;21029;-50
2022/10/18 06:48:15;;;;;;;7.67;2.22;;;;;;;11.89;100.00;100829.50;1772916;78;21039;-50
2022/10/18 06:50:42;;;;;;;5.05;1.60;;;;;;;11.98;100.00;100827.81;1774073;78;21830;-49
2022/10/18 06:53:08;;;;;;;6.60;2.25;;;;;;;12.05;100.00;100822.12;1775775;78;21380;-50
2022/10/18 06:55:35;;;;;;;3.45;2.33;;;;;;;12.15;100.00;100817.73;1742499;79;21529;-49
2022/10/18 06:58:03;;;;;;;2.70;1.50;;;;;;;12.25;100.00;100811.05;1710819;82;21731;-50
2022/10/18 07:00:30;;;;;;;4.50;2.02;;;;;;;12.34;100.00;100812.91;1713685;82;21108;-50
2022/10/18 07:02:58;;;;;;;3.52;1.77;;;;;;;12.44;100.00;100803.98;1737555;80;21046;-51
2022/10/18 07:05:24;;;;;;;10.55;1.95;;;;;;;12.54;100.00;100804.03;1717161;81;21157;-49
2022/10/18 07:07:51;;;;;;;8.75;1.98;;;;;;;12.63;100.00;100806.37;1710867;82;21126;-49
2022/10/18 07:10:18;;;;;;;5.17;1.55;;;;;;;12.72;100.00;100797.90;1713203;82;21209;-49
2022/10/18 07:12:45;;;;;;;3.05;2.02;;;;;;;12.84;100.00;100804.64;1712255;82;21362;-50
2022/10/18 07:15:11;;;;;;;3.90;1.50;;;;;;;12.96;100.00;100798.71;1708006;82;21929;-50
2022/10/18 07:17:39;;;;;;;3.10;1.85;;;;;;;13.07;100.00;100786.11;1696839;82;21171;-49
2022/10/18 07:20:06;;;;;;;3.95;2.02;;;;;;;13.17;100.00;100785.70;1765336;79;21041;-50
2022/10/18 07:22:36;;;;;;;7.20;1.90;;;;;;;13.28;100.00;100781.62;1763078;79;21019;-50
2022/10/18 07:25:05;;;;;;;3.62;1.62;;;;;;;13.38;100.00;100784.34;1763764;79;21041;-49
2022/10/18 07:27:37;;;;;;;6.15;2.00;;;;;;;13.49;100.00;100787.00;1767138;80;21963;-49
2022/10/18 07:30:06;;;;;;;5.65;2.20;;;;;;;13.60;100.00;100776.59;1763722;79;21057;-51
2022/10/18 07:32:32;;;;;;;3.00;1.35;;;;;;;13.72;100.00;100780.56;1761688;79;21092;-50
2022/10/18 07:34:59;;;;;;;5.45;2.40;;;;;;;13.84;100.00;100780.49;1767362;79;21309;-51
2022/10/18 07:37:25;;;;;;;3.17;2.12;;;;;;;13.93;100.00;100778.25;1723927;81;21094;-50
2022/10/18 07:39:52;;;;;;;3.60;1.65;;;;;;;14.01;100.00;100776.07;1727437;81;21941;-50
2022/10/18 07:42:18;;;;;;;6.10;2.67;;;;;;;14.23;100.00;100765.58;1707082;82;21092;-49
2022/10/18 07:44:46;;;;;;;7.35;1.90;;;;;;;14.23;100.00;100765.58;1706778;82;21038;-50
2022/10/18 07:47:12;;;;;;;9.25;4.60;;;;;;;14.34;100.00;100766.84;1764444;79;21070;-48
2022/10/18 07:49:38;;;;;;;13.78;7.22;;;;;;;14.44;100.00;100753.77;1768892;79;20983;-47
2022/10/18 07:52:05;;;;;;;8.70;4.00;;;;;;;14.55;100.00;100755.45;1766003;79;21253;-48
2022/10/18 07:54:31;;;;;;;12.57;4.73;;;;;;;14.64;100.00;100759.08;1763333;79;21054;-47
2022/10/18 07:56:58;;;;;;;7.67;2.37;;;;;;;14.73;100.00;100752.33;1763254;80;21081;-49
2022/10/18 07:59:24;;;;;;;5.92;3.83;;;;;;;14.81;100.00;100750.59;1767016;80;21543;-47
2022/10/18 08:01:50;;;;;;;5.25;2.85;;;;;;;14.89;100.00;100745.66;1766555;80;21070;-53
2022/10/18 08:04:17;;;;;;;6.20;1.95;;;;;;;14.94;100.00;100744.49;1727143;81;21354;-48
2022/10/18 08:06:43;;;;;;;4.17;2.02;;;;;;;15.02;100.00;100752.23;1763967;79;21288;-48
2022/10/18 08:09:12;;;;;;;1.92;1.60;;;;;;;15.09;100.00;100746.42;1766840;80;21170;-46
2022/10/18 08:11:38;;;;;;;3.40;1.90;;;;;;;15.18;100.00;100736.05;1762524;80;21018;-47
2022/10/18 08:14:04;;;;;;;5.95;2.05;;;;;;;15.26;100.00;100743.31;1765619;79;21061;-48
2022/10/18 08:16:31;;;;;;;4.12;1.52;;;;;;;15.32;100.00;100740.27;1762918;79;21824;-48
2022/10/18 08:18:58;;;;;;;4.17;2.05;;;;;;;15.37;100.00;100730.08;1757432;80;21179;-49
2022/10/18 08:21:26;;;;;;;2.87;1.32;;;;;;;15.42;100.00;100727.52;1762617;79;21042;-49
2022/10/18 08:23:53;;;;;;;18.15;2.98;;;;;;;15.49;100.00;100719.44;1726461;81;21496;-47
2022/10/18 08:26:21;;;;;;;5.53;3.08;;;;;;;15.56;100.00;100721.41;1756847;79;21037;-49
2022/10/18 08:28:49;;;;;;;5.00;1.92;;;;;;;15.66;100.00;100714.50;1762062;79;21756;-47
2022/10/18 08:31:16;;;;;;;4.40;1.95;;;;;;;15.78;100.00;100709.78;1720981;81;21053;-48
2022/10/18 08:33:43;;;;;;;5.65;1.50;;;;;;;15.91;100.00;100709.96;1765483;80;20986;-46
2022/10/18 08:36:12;;;;;;;3.42;1.17;;;;;;;16.01;100.00;100709.86;1764258;80;21448;-48
2022/10/18 08:38:39;;;;;;;7.70;2.22;;;;;;;16.10;100.00;100701.20;1765628;79;21548;-48
2022/10/18 08:41:38;;;;;;;5.90;1.02;;;;;;;16.21;100.00;100700.12;1762561;80;21775;-47
2022/10/18 08:44:25;;;;;;;6.12;2.42;;;;;;;16.33;100.00;100697.20;1764081;80;21014;-49
2022/10/18 08:47:04;;;;;;;4.15;2.05;;;;;;;16.48;100.00;100695.45;1764765;80;21703;-49
2022/10/18 08:49:55;;;;;;;4.75;2.02;;;;;;;16.60;100.00;100693.36;1760191;80;20963;-47
2022/10/18 08:52:38;;;;;;;4.55;1.50;;;;;;;16.72;100.00;100685.89;1767146;79;21682;-47
2022/10/18 08:55:22;;;;;;;3.45;1.60;;;;;;;16.83;100.00;100686.14;1744468;80;21812;-47
2022/10/18 08:57:49;;;;;;;3.87;1.50;;;;;;;16.94;100.00;100680.92;1741479;79;21524;-49
2022/10/18 09:00:18;;;;;;;3.30;1.40;;;;;;;17.06;100.00;100669.80;1763727;80;21545;-49
2022/10/18 09:03:06;;;;;;;2.60;2.00;;;;;;;17.14;100.00;100674.28;1761308;80;21066;-49
2022/10/18 09:05:51;;;;;;;6.65;1.72;;;;;;;17.21;100.00;100669.34;1760299;79;21053;-49
2022/10/18 09:08:29;;;;;;;5.15;1.57;;;;;;;17.32;100.00;100670.93;1759170;80;22544;-49
2022/10/18 09:11:13;;;;;;;4.78;1.77;;;;;;;17.42;100.00;100659.00;1760068;79;21076;-48
2022/10/18 09:14:21;;;;;;;6.53;1.30;;;;;;;17.51;100.00;100659.78;1760648;79;21567;-50
2022/10/18 09:17:05;;;;;;;4.80;1.72;;;;;;;17.61;100.00;100658.20;1678514;83;21323;-49
2022/10/18 09:19:57;;;;;;;2.47;1.90;;;;;;;17.71;100.00;100656.70;1753214;79;21152;-49
2022/10/18 09:22:42;;;;;;;2.35;1.60;;;;;;;17.79;100.00;100650.27;1757795;79;21850;-48
2022/10/18 09:25:30;;;;;;;16.70;2.10;;;;;;;17.90;100.00;100640.94;1719214;79;21101;-48
2022/10/18 09:28:24;;;;;;;5.03;1.47;;;;;;;17.97;100.00;100635.48;1761710;80;21056;-49
2022/10/18 09:31:04;;;;;;;3.60;1.40;;;;;;;18.05;100.00;100633.13;1761219;80;21076;-50
2022/10/18 09:33:39;;;;;;;4.35;1.70;;;;;;;18.13;100.00;100626.69;1760429;80;21125;-50
2022/10/18 09:36:17;;;;;;;2.15;1.27;;;;;;;18.20;100.00;100619.02;1762784;80;23039;-49
2022/10/18 09:38:48;;;;;;;2.85;1.62;;;;;;;18.26;100.00;100616.36;1762077;79;21751;-50
2022/10/18 09:41:24;;;;;;;5.25;1.45;;;;;;;18.34;100.00;100618.09;1757558;80;22262;-50
2022/10/18 09:44:05;;;;;;;1.87;1.12;;;;;;;18.40;100.00;100612.22;1759081;80;21030;-49
2022/10/18 09:46:35;;;;;;;6.33;1.57;;;;;;;18.47;100.00;100605.37;1762009;80;21492;-49
2022/10/18 09:49:11;;;;;;;4.97;1.00;;;;;;;18.52;100.00;100601.38;1738775;80;21946;-49
2022/10/18 09:51:38;;;;;;;2.85;1.12;;;;;;;18.59;100.00;100592.80;1718329;80;21265;-49
2022/10/18 09:54:25;;;;;;;2.12;1.30;;;;;;;18.64;100.00;100587.41;1760542;79;21069;-49
2022/10/18 09:57:12;;;;;;;7.03;1.40;;;;;;;18.69;100.00;100589.36;1760843;79;21774;-49
2022/10/18 09:59:43;;;;;;;2.27;1.20;;;;;;;18.73;100.00;100579.97;1758636;80;21228;-49
2022/10/18 10:02:17;;;;;;;2.10;1.50;;;;;;;18.77;100.00;100570.61;1758881;79;21830;-49
2022/10/18 10:04:43;;;;;;;1.40;1.10;;;;;;;18.81;100.00;100561.70;1765361;79;21991;-48
2022/10/18 10:07:20;;;;;;;1.50;1.20;;;;;;;18.86;100.00;100559.55;1754569;79;21077;-49
2022/10/18 10:10:17;;;;;;;5.05;1.40;;;;;;;18.88;100.00;100554.34;1761219;79;21112;-48
2022/10/18 10:12:46;;;;;;;3.37;1.30;;;;;;;18.93;100.00;100550.44;1757578;79;21375;-49
2022/10/18 10:15:24;;;;;;;1.50;1.17;;;;;;;18.98;100.00;100546.39;1764070;79;22862;-49
2022/10/18 10:18:04;;;;;;;2.02;1.20;;;;;;;19.03;100.00;100551.05;1774840;79;21238;-50
2022/10/18 10:20:53;;;;;;;7.03;1.52;;;;;;;19.06;100.00;100542.63;1770716;79;21358;-49
2022/10/18 10:23:33;;;;;;;2.77;1.47;;;;;;;19.11;100.00;100535.02;1774462;80;21376;-49
2022/10/18 10:26:05;;;;;;;4.97;1.67;;;;;;;19.15;100.00;100536.52;1770378;79;21123;-50
2022/10/18 10:28:38;;;;;;;2.25;1.10;;;;;;;19.21;100.00;100528.41;1769489;78;21814;-51
2022/10/18 10:31:28;;;;;;;4.80;1.15;;;;;;;19.24;100.00;100530.90;1774309;79;21036;-51
2022/10/18 10:34:17;;;;;;;1.47;1.10;;;;;;;19.26;100.00;100521.63;1772950;79;21072;-49
2022/10/18 10:36:51;;;;;;;1.35;1.22;;;;;;;19.26;100.00;100516.16;1774987;78;21104;-50
2022/10/18 10:39:20;;;;;;;5.58;1.27;;;;;;;19.29;100.00;100515.08;1771448;79;21362;-50
2022/10/18 10:41:52;;;;;;;6.10;1.30;;;;;;;19.34;100.00;100512.88;1771726;79;22591;-49
2022/10/18 10:44:25;;;;;;;1.82;1.00;;;;;;;19.39;100.00;100508.47;1772606;79;21030;-49
2022/10/18 10:46:51;;;;;;;6.33;1.10;;;;;;;19.41;100.00;100504.63;1777322;79;21222;-49
2022/10/18 10:49:23;;;;;;;4.35;1.40;;;;;;;19.44;100.00;100507.14;1772455;79;21283;-48
2022/10/18 10:51:59;;;;;;;3.45;1.35;;;;;;;19.48;100.00;100505.95;1774230;79;21094;-48
2022/10/18 10:54:26;;;;;;;1.42;0.80;;;;;;;19.51;100.00;100494.81;1773206;78;21807;-49
2022/10/18 10:57:11;;;;;;;5.92;1.15;;;;;;;19.53;100.00;100488.75;1739949;81;21057;-49
2022/10/18 10:59:48;;;;;;;1.20;0.90;;;;;;;19.56;100.00;100492.60;1737276;81;21195;-48
2022/10/18 11:02:22;;;;;;;5.00;0.90;;;;;;;19.57;100.00;100479.82;1709058;82;21525;-50
2022/10/18 11:04:51;;;;;;;4.00;1.20;;;;;;;19.57;100.00;100480.70;1712069;82;21081;-49
2022/10/18 11:07:36;;;;;;;1.20;0.90;;;;;;;19.58;100.00;100476.11;1740467;81;21869;-50
2022/10/18 11:10:13;;;;;;;2.45;1.22;;;;;;;19.60;100.00;100475.02;1742745;81;21286;-50
2022/10/18 11:12:50;;;;;;;2.20;1.15;;;;;;;19.61;100.00;100472.67;1738483;80;21383;-49
2022/10/18 11:15:23;;;;;;;3.08;0.90;;;;;;;19.64;100.00;100467.48;1710743;82;21527;-49
2022/10/18 11:18:05;;;;;;;2.45;1.10;;;;;;;19.65;100.00;100461.88;1712783;82;21409;-50
2022/10/18 11:20:42;;;;;;;1.10;0.90;;;;;;;19.68;100.00;100462.65;1767722;79;21781;-49
2022/10/18 11:23:15;;;;;;;1.95;0.90;;;;;;;19.69;100.00;100458.44;1770716;79;20994;-50
2022/10/18 11:25:55;;;;;;;5.53;0.93;;;;;;;19.71;100.00;100451.50;1768125;80;20986;-50
2022/10/18 11:28:36;;;;;;;2.02;0.90;;;;;;;19.72;100.00;100445.94;1771601;80;21452;-48
2022/10/18 11:31:31;;;;;;;1.85;0.90;;;;;;;19.73;100.00;100437.25;1766019;80;21045;-49
2022/10/18 11:34:31;;;;;;;1.62;0.80;;;;;;;19.75;100.00;100431.15;1769201;79;21880;-49
2022/10/18 11:37:21;;;;;;;2.52;0.80;;;;;;;19.77;100.00;100427.81;1769964;79;21534;-50
2022/10/18 11:40:09;;;;;;;1.52;1.00;;;;;;;19.77;100.00;100420.98;1768274;80;21077;-49
2022/10/18 11:43:11;;;;;;;5.30;0.82;;;;;;;19.77;100.00;100418.26;1773077;80;21022;-50